Time;durP1;ratioP1;P1;durP2;ratioP2;P2;SDS_P1;SDS_P2;PMS_P1;PMS_P2;Temp;Humidity;BMP_temperature;BMP_pressure;BME280_temperature;BME280_humidity;BME280_pressure;Samples;Min_cycle;Max_cycle;Signal;HPM_P1;HPM_P2
2022/01/16 00:04:27;;;;;;;60.55;32.30;;;3.70;82.50;;;;;;4998776;28;20734;-76
2022/01/16 00:06:55;;;;;;;60.25;33.25;;;3.70;82.50;;;;;;4995073;28;20210;-76
2022/01/16 00:09:22;;;;;;;53.47;31.83;;;3.80;82.70;;;;;;4995827;28;20749;-76
2022/01/16 00:11:55;;;;;;;60.63;31.67;;;3.80;82.70;;;;;;4994923;28;20206;-76
2022/01/16 00:14:25;;;;;;;54.97;30.42;;;3.90;82.70;;;;;;4997077;28;21872;-76
2022/01/16 00:16:53;;;;;;;47.97;28.85;;;3.90;82.80;;;;;;4994529;28;20257;-76
2022/01/16 00:19:21;;;;;;;44.70;27.92;;;4.00;82.60;;;;;;4995615;28;20633;-76
2022/01/16 00:21:49;;;;;;;47.58;27.35;;;4.00;82.40;;;;;;4999214;28;20248;-76
2022/01/16 00:24:17;;;;;;;48.63;27.92;;;4.00;82.10;;;;;;4996534;28;20190;-76
2022/01/16 00:26:45;;;;;;;46.00;28.10;;;4.00;82.20;;;;;;4998989;28;20240;-76
2022/01/16 00:29:13;;;;;;;48.95;29.05;;;4.00;82.30;;;;;;4996234;28;20202;-76
2022/01/16 00:31:43;;;;;;;44.17;26.05;;;4.00;82.30;;;;;;4996243;28;20210;-76
2022/01/16 00:34:12;;;;;;;48.10;28.35;;;4.00;82.20;;;;;;4997885;28;20198;-76
2022/01/16 00:36:40;;;;;;;49.10;28.40;;;4.00;82.10;;;;;;4998972;28;20538;-76
2022/01/16 00:39:08;;;;;;;51.15;30.20;;;4.00;81.80;;;;;;4998486;28;20262;-76
2022/01/16 00:41:36;;;;;;;54.78;30.50;;;3.90;82.00;;;;;;4999260;28;20217;-76
2022/01/16 00:44:05;;;;;;;51.78;28.35;;;3.90;82.00;;;;;;4999585;28;20207;-76
2022/01/16 00:46:34;;;;;;;44.40;27.15;;;3.80;81.60;;;;;;4996828;28;20217;-76
2022/01/16 00:49:04;;;;;;;49.10;27.45;;;3.80;81.90;;;;;;4998167;28;20253;-76
2022/01/16 00:51:32;;;;;;;51.40;28.20;;;3.80;82.00;;;;;;5004386;28;20205;-76
2022/01/16 00:54:00;;;;;;;49.22;28.75;;;3.80;82.10;;;;;;4998195;28;20261;-76
2022/01/16 00:56:28;;;;;;;47.90;28.02;;;3.80;82.10;;;;;;5012696;28;20252;-76
2022/01/16 00:58:56;;;;;;;46.92;28.08;;;3.80;82.10;;;;;;5003892;28;20225;-76
2022/01/16 01:01:24;;;;;;;50.83;29.00;;;3.80;82.30;;;;;;5000611;28;20283;-76
2022/01/16 01:03:52;;;;;;;53.13;29.05;;;3.90;82.30;;;;;;5000982;28;20613;-76
2022/01/16 01:06:21;;;;;;;48.85;26.60;;;3.80;81.90;;;;;;4999707;28;20252;-76
2022/01/16 01:08:49;;;;;;;51.03;30.15;;;3.80;81.70;;;;;;4993814;28;20225;-76
2022/01/16 01:11:19;;;;;;;51.90;29.05;;;3.70;81.80;;;;;;4997181;28;20209;-76
2022/01/16 01:14:14;;;;;;;56.45;31.17;;;3.70;82.00;;;;;;4997446;28;20283;-76
2022/01/16 01:16:51;;;;;;;53.30;30.63;;;3.70;82.10;;;;;;4999292;28;20615;-76
2022/01/16 01:19:21;;;;;;;57.45;30.27;;;3.80;82.10;;;;;;4994603;28;20198;-76
2022/01/16 01:21:51;;;;;;;48.03;30.10;;;3.80;82.10;;;;;;4994695;28;20338;-76
2022/01/16 01:24:19;;;;;;;56.33;29.88;;;3.80;82.10;;;;;;4996099;28;20251;-76
2022/01/16 01:26:54;;;;;;;54.75;30.73;;;3.80;82.10;;;;;;4996758;28;20220;-76
2022/01/16 01:29:21;;;;;;;52.88;30.10;;;3.80;82.10;;;;;;4996504;28;20197;-76
2022/01/16 01:31:52;;;;;;;58.72;30.00;;;3.90;82.10;;;;;;4996338;28;20205;-76
2022/01/16 01:34:20;;;;;;;54.58;30.40;;;3.90;82.20;;;;;;5003606;28;20198;-76
2022/01/16 01:36:49;;;;;;;52.33;30.48;;;3.90;82.10;;;;;;4998559;28;20201;-76
2022/01/16 01:39:20;;;;;;;53.58;30.33;;;3.90;82.00;;;;;;4996599;28;20194;-76
2022/01/16 01:41:55;;;;;;;51.35;29.42;;;4.00;81.90;;;;;;4998085;28;20210;-75
2022/01/16 01:52:40;;;;;;;55.50;31.80;;;3.90;81.70;;;;;;5000851;28;20202;-76
2022/01/16 01:55:10;;;;;;;57.78;31.25;;;3.90;81.40;;;;;;4999008;28;20686;-76
2022/01/16 01:57:38;;;;;;;57.47;30.95;;;3.80;81.30;;;;;;4999607;28;20225;-76
2022/01/16 02:00:08;;;;;;;61.97;32.90;;;3.70;81.40;;;;;;4994943;28;20206;-76
2022/01/16 02:02:49;;;;;;;64.15;33.33;;;3.70;81.50;;;;;;4996295;28;20734;-76
2022/01/16 02:05:18;;;;;;;68.85;35.08;;;3.60;81.50;;;;;;4994894;28;20209;-76
2022/01/16 02:07:46;;;;;;;62.15;34.60;;;3.60;81.60;;;;;;4997642;28;20291;-76
2022/01/16 02:10:16;;;;;;;61.10;33.10;;;3.60;81.80;;;;;;4996386;28;20202;-76
2022/01/16 02:12:46;;;;;;;64.20;34.40;;;3.60;81.90;;;;;;4999871;28;20871;-76
2022/01/16 02:15:35;;;;;;;59.28;32.05;;;3.60;81.90;;;;;;5001532;28;20214;-76
2022/01/16 02:29:59;;;;;;;52.85;28.92;;;3.80;82.00;;;;;;5000307;28;20709;-76
2022/01/16 02:35:08;;;;;;;56.88;31.13;;;3.80;82.10;;;;;;4998416;28;20225;-76
2022/01/16 02:37:36;;;;;;;58.05;29.77;;;3.90;82.00;;;;;;5005091;28;20285;-76
2022/01/16 02:40:14;;;;;;;54.42;28.83;;;3.90;82.00;;;;;;4996733;28;20198;-76
2022/01/16 02:42:48;;;;;;;58.63;30.25;;;3.90;81.90;;;;;;4996075;28;20882;-76
2022/01/16 02:45:28;;;;;;;54.30;28.55;;;3.90;81.90;;;;;;5000863;28;20194;-76
2022/01/16 02:47:58;;;;;;;50.50;27.70;;;3.90;81.90;;;;;;5000293;28;20237;-76
2022/01/16 02:50:27;;;;;;;54.20;28.23;;;4.00;81.70;;;;;;5001883;28;20218;-76
2022/01/16 02:52:55;;;;;;;57.80;28.95;;;4.00;81.70;;;;;;4997358;28;20850;-76
2022/01/16 02:55:25;;;;;;;50.70;26.33;;;3.90;81.60;;;;;;5002552;28;20201;-76
2022/01/16 02:57:54;;;;;;;55.38;27.90;;;3.90;81.70;;;;;;4997562;28;20234;-76
2022/01/16 03:00:23;;;;;;;53.13;26.23;;;3.90;81.90;;;;;;5000140;28;20272;-76
2022/01/16 03:02:52;;;;;;;49.75;26.85;;;4.00;81.80;;;;;;4994808;28;20318;-76
2022/01/16 03:05:20;;;;;;;59.70;28.30;;;4.00;81.70;;;;;;4998218;28;20233;-76
2022/01/16 03:07:48;;;;;;;52.55;29.00;;;3.90;81.60;;;;;;4997946;28;20257;-76
2022/01/16 03:10:42;;;;;;;54.47;28.90;;;3.90;81.70;;;;;;4999954;28;20214;-76
2022/01/16 03:13:12;;;;;;;52.92;27.98;;;4.00;81.70;;;;;;5001137;28;20293;-76
2022/01/16 03:15:40;;;;;;;55.08;29.60;;;4.00;81.70;;;;;;4993025;28;20237;-76
2022/01/16 03:23:44;;;;;;;56.65;27.65;;;4.00;81.50;;;;;;4999553;28;20210;-76
2022/01/16 03:26:12;;;;;;;54.72;25.67;;;3.90;81.60;;;;;;5000241;28;20206;-76
2022/01/16 03:28:41;;;;;;;59.55;27.50;;;3.90;81.70;;;;;;5000655;28;20233;-76
2022/01/16 03:31:09;;;;;;;50.42;27.15;;;3.90;81.60;;;;;;4997111;28;20191;-76
2022/01/16 03:33:37;;;;;;;54.05;26.80;;;3.90;81.60;;;;;;4999452;28;20285;-76
2022/01/16 03:36:05;;;;;;;56.70;26.67;;;3.90;81.60;;;;;;5000208;28;20205;-76
2022/01/16 03:38:33;;;;;;;54.97;27.48;;;3.90;81.60;;;;;;4994947;28;20230;-76
2022/01/16 03:41:01;;;;;;;54.60;26.10;;;3.90;81.60;;;;;;4997189;28;20206;-76
2022/01/16 03:43:29;;;;;;;55.13;27.77;;;3.90;81.60;;;;;;4993758;28;20226;-76
2022/01/16 03:45:59;;;;;;;53.20;27.80;;;3.90;81.60;;;;;;4998628;28;20215;-76
2022/01/16 03:48:28;;;;;;;52.42;26.20;;;3.90;81.60;;;;;;4997501;28;20645;-76
2022/01/16 03:50:56;;;;;;;51.78;23.95;;;3.80;81.70;;;;;;4998989;28;20206;-76
2022/01/16 03:53:24;;;;;;;52.72;25.80;;;3.80;81.60;;;;;;4997582;28;20202;-76
2022/01/16 03:55:52;;;;;;;52.45;24.42;;;3.80;81.50;;;;;;4998075;28;20617;-76
2022/01/16 03:58:20;;;;;;;55.30;25.88;;;3.80;81.70;;;;;;5001763;28;20226;-76
2022/01/16 04:00:48;;;;;;;60.83;25.08;;;3.80;81.70;;;;;;4999597;28;20252;-76
2022/01/16 04:03:17;;;;;;;51.17;25.02;;;3.80;81.70;;;;;;4992577;28;20700;-76
2022/01/16 04:05:45;;;;;;;51.25;25.85;;;3.80;81.90;;;;;;5000421;28;20209;-76
2022/01/16 04:08:13;;;;;;;56.58;23.13;;;3.80;82.00;;;;;;4998874;28;20234;-76
2022/01/16 04:10:41;;;;;;;56.15;24.20;;;3.80;82.00;;;;;;4999561;28;20261;-76
2022/01/16 04:13:10;;;;;;;49.40;21.85;;;3.80;82.00;;;;;;4997960;28;20233;-76
2022/01/16 04:15:38;;;;;;;47.88;22.27;;;3.80;81.90;;;;;;4995732;28;20255;-76
2022/01/16 04:18:07;;;;;;;46.53;22.83;;;3.80;81.90;;;;;;4999518;28;20209;-76
2022/01/16 04:20:36;;;;;;;47.25;21.92;;;3.80;81.90;;;;;;4995696;28;20269;-76
2022/01/16 04:23:06;;;;;;;44.17;20.17;;;3.80;82.00;;;;;;4995853;28;20265;-76
2022/01/16 04:25:34;;;;;;;34.72;16.75;;;3.80;82.00;;;;;;5001300;28;20287;-76
2022/01/16 04:28:02;;;;;;;33.15;15.45;;;3.70;82.00;;;;;;4999188;28;20288;-76
2022/01/16 04:30:30;;;;;;;31.58;16.70;;;3.70;82.00;;;;;;4997593;28;20656;-76
2022/01/16 04:32:58;;;;;;;29.20;15.40;;;3.70;82.10;;;;;;5001953;28;20538;-76
2022/01/16 04:35:26;;;;;;;43.78;17.38;;;3.70;82.20;;;;;;4997057;28;20213;-76
2022/01/16 04:37:55;;;;;;;27.45;13.52;;;3.80;82.20;;;;;;4996974;28;20306;-76
2022/01/16 04:40:41;;;;;;;29.13;13.80;;;3.70;82.10;;;;;;4997443;28;20210;-76
2022/01/16 04:45:57;;;;;;;22.92;11.75;;;3.70;82.10;;;;;;4996039;28;20213;-76
2022/01/16 04:48:25;;;;;;;22.45;11.88;;;3.70;82.00;;;;;;5002400;28;20296;-76
2022/01/16 04:50:53;;;;;;;22.77;12.02;;;3.60;82.10;;;;;;4999473;28;20209;-76
2022/01/16 04:53:22;;;;;;;20.17;11.18;;;3.60;82.10;;;;;;4997185;28;20240;-76
2022/01/16 04:55:50;;;;;;;22.65;12.32;;;3.60;82.20;;;;;;5001646;28;20206;-76
2022/01/16 04:58:21;;;;;;;23.10;12.32;;;3.60;82.20;;;;;;4999285;28;20256;-76
2022/01/16 05:00:54;;;;;;;21.52;11.77;;;3.60;82.30;;;;;;4995363;28;20227;-76
2022/01/16 05:03:23;;;;;;;25.83;12.45;;;3.70;82.30;;;;;;5001514;28;20214;-76
2022/01/16 05:05:52;;;;;;;22.90;12.40;;;3.70;82.40;;;;;;4993909;28;20738;-76
2022/01/16 05:08:20;;;;;;;23.60;12.38;;;3.70;82.40;;;;;;4993947;28;20225;-76
2022/01/16 05:10:52;;;;;;;23.13;11.65;;;3.70;82.40;;;;;;4997729;28;20269;-76
2022/01/16 05:16:34;;;;;;;19.50;11.70;;;3.80;82.40;;;;;;4996480;28;20193;-76
2022/01/16 05:16:35;;;;;;;25.65;11.90;;;3.80;82.40;;;;;;4993874;28;20206;-76
2022/01/16 05:19:05;;;;;;;24.80;12.88;;;3.80;82.40;;;;;;4997764;28;20228;-76
2022/01/16 05:21:33;;;;;;;23.25;11.25;;;3.80;82.40;;;;;;4998002;28;20217;-76
2022/01/16 05:24:06;;;;;;;23.38;11.77;;;3.80;82.30;;;;;;4999609;28;20761;-76
2022/01/16 05:26:35;;;;;;;23.10;12.10;;;3.80;82.30;;;;;;5000425;28;20236;-76
2022/01/16 05:29:03;;;;;;;22.83;11.38;;;3.80;82.20;;;;;;4995467;28;20233;-76
2022/01/16 05:31:32;;;;;;;23.35;12.23;;;3.80;82.30;;;;;;4993680;28;20210;-76
2022/01/16 05:34:00;;;;;;;25.20;12.57;;;3.80;82.40;;;;;;4998168;28;20212;-76
2022/01/16 05:36:27;;;;;;;31.00;13.65;;;3.80;82.30;;;;;;4996453;28;20206;-76
2022/01/16 05:38:55;;;;;;;22.90;11.70;;;3.80;82.40;;;;;;4995924;28;20229;-76
2022/01/16 05:41:23;;;;;;;26.85;12.52;;;3.80;82.40;;;;;;4996720;28;20268;-76
2022/01/16 05:43:53;;;;;;;21.73;13.38;;;3.80;82.30;;;;;;4994472;28;20225;-76
2022/01/16 05:46:21;;;;;;;19.75;11.63;;;3.80;82.30;;;;;;4997835;28;20211;-76
2022/01/16 05:48:50;;;;;;;22.52;11.60;;;3.80;82.40;;;;;;5002200;28;20560;-76
2022/01/16 05:51:18;;;;;;;24.48;11.48;;;3.80;82.50;;;;;;4998633;28;20214;-76
2022/01/16 05:53:46;;;;;;;26.45;13.27;;;3.80;82.40;;;;;;5003177;28;20208;-76
2022/01/16 05:56:14;;;;;;;21.83;11.77;;;3.80;82.50;;;;;;5002587;28;20207;-76
2022/01/16 05:58:42;;;;;;;28.27;13.35;;;3.80;82.40;;;;;;4995467;28;20230;-76
2022/01/16 06:01:11;;;;;;;22.30;12.77;;;3.80;82.40;;;;;;5000701;28;20214;-76
2022/01/16 06:03:39;;;;;;;22.40;12.35;;;3.80;82.40;;;;;;5000537;28;20897;-76
2022/01/16 06:06:08;;;;;;;23.27;11.02;;;3.80;82.30;;;;;;5000247;28;20272;-76
2022/01/16 06:08:38;;;;;;;23.05;12.07;;;3.80;82.40;;;;;;4998349;28;20368;-76
2022/01/16 06:11:06;;;;;;;22.23;12.75;;;3.80;82.50;;;;;;5001728;28;20263;-76
2022/01/16 06:13:34;;;;;;;26.83;12.23;;;3.80;82.60;;;;;;4999630;28;20210;-76
2022/01/16 06:16:03;;;;;;;26.98;14.07;;;3.80;82.50;;;;;;4996924;28;20241;-76
2022/01/16 06:18:33;;;;;;;25.35;13.75;;;3.80;82.40;;;;;;4999044;28;20706;-76
2022/01/16 06:21:01;;;;;;;25.85;12.98;;;3.80;82.50;;;;;;5003737;28;20255;-76
2022/01/16 06:23:29;;;;;;;21.80;12.20;;;3.80;82.50;;;;;;5000532;28;20249;-76
2022/01/16 06:25:57;;;;;;;25.52;12.65;;;3.80;82.50;;;;;;5007188;28;20213;-76
2022/01/16 06:28:27;;;;;;;23.25;12.60;;;3.80;82.50;;;;;;5002733;28;20284;-76
2022/01/16 06:30:55;;;;;;;22.65;12.25;;;3.80;82.50;;;;;;4997166;28;20194;-76
2022/01/16 06:33:24;;;;;;;25.48;12.93;;;3.90;82.60;;;;;;5002309;28;20233;-76
2022/01/16 06:35:53;;;;;;;27.02;15.43;;;3.90;82.50;;;;;;5002855;28;20240;-76
2022/01/16 06:38:21;;;;;;;23.88;13.52;;;3.90;82.50;;;;;;4998755;28;20804;-76
2022/01/16 06:40:49;;;;;;;24.70;13.95;;;3.90;82.50;;;;;;5003851;28;20210;-76
2022/01/16 06:43:17;;;;;;;23.63;13.85;;;3.90;82.50;;;;;;4997439;28;20720;-76
2022/01/16 06:45:45;;;;;;;24.13;13.27;;;3.90;82.50;;;;;;5000193;28;20208;-76
2022/01/16 06:48:13;;;;;;;25.90;13.95;;;3.90;82.50;;;;;;4998045;28;20222;-76
2022/01/16 06:50:41;;;;;;;22.67;12.57;;;3.90;82.50;;;;;;4998295;28;20213;-76
2022/01/16 06:53:10;;;;;;;28.05;14.50;;;3.90;82.50;;;;;;4999901;28;20206;-76
2022/01/16 06:55:38;;;;;;;25.20;13.93;;;3.90;82.40;;;;;;5004127;28;20251;-76
2022/01/16 06:58:06;;;;;;;28.67;13.80;;;3.90;82.40;;;;;;4998815;28;20221;-76
2022/01/16 07:00:34;;;;;;;23.42;12.90;;;3.90;82.40;;;;;;4998857;28;20265;-76
2022/01/16 07:03:02;;;;;;;24.35;14.10;;;3.80;82.40;;;;;;5002722;28;20284;-76
2022/01/16 07:05:30;;;;;;;28.83;13.77;;;3.80;82.40;;;;;;4999495;28;20230;-76
2022/01/16 07:07:58;;;;;;;25.77;14.02;;;3.80;82.50;;;;;;4999727;28;20225;-76
2022/01/16 07:10:27;;;;;;;23.48;13.27;;;3.80;82.40;;;;;;5002736;28;20205;-76
2022/01/16 07:12:55;;;;;;;23.73;13.13;;;3.80;82.50;;;;;;5001402;28;20201;-76
2022/01/16 07:15:23;;;;;;;25.83;14.07;;;3.80;82.40;;;;;;5001400;28;20602;-76
2022/01/16 07:17:51;;;;;;;28.02;13.90;;;3.80;82.40;;;;;;5001576;28;20716;-76
2022/01/16 07:20:18;;;;;;;26.92;15.48;;;3.70;82.40;;;;;;5005071;28;20213;-76
2022/01/16 07:22:47;;;;;;;25.38;14.95;;;3.70;82.60;;;;;;5007178;28;20222;-76
2022/01/16 07:25:15;;;;;;;24.17;14.10;;;3.80;82.60;;;;;;4999631;28;20221;-76
2022/01/16 07:27:44;;;;;;;27.60;14.55;;;3.80;82.50;;;;;;4999009;28;20715;-76
2022/01/16 07:30:12;;;;;;;30.05;15.55;;;3.80;82.50;;;;;;5000546;28;20214;-76
2022/01/16 07:32:40;;;;;;;24.40;14.77;;;3.70;82.50;;;;;;4995831;28;20212;-76
2022/01/16 07:35:09;;;;;;;22.30;14.45;;;3.70;82.40;;;;;;4995361;28;20211;-76
2022/01/16 07:37:56;;;;;;;31.65;15.70;;;3.70;82.50;;;;;;4998678;28;20217;-76
2022/01/16 07:40:24;;;;;;;26.65;14.98;;;3.70;82.30;;;;;;5001125;28;20757;-76
2022/01/16 07:42:54;;;;;;;28.60;15.98;;;3.70;82.30;;;;;;5001304;28;20284;-76
2022/01/16 07:45:23;;;;;;;29.77;16.90;;;3.60;82.40;;;;;;5004582;28;20210;-76
2022/01/16 07:47:50;;;;;;;34.00;17.90;;;3.60;82.50;;;;;;5000413;28;20229;-76
2022/01/16 07:50:19;;;;;;;30.40;16.15;;;3.60;82.50;;;;;;5000622;28;20213;-76
2022/01/16 07:52:47;;;;;;;32.00;17.73;;;3.60;82.50;;;;;;5000537;28;20217;-76
2022/01/16 07:55:17;;;;;;;33.63;18.45;;;3.60;82.40;;;;;;4998305;28;20277;-76
2022/01/16 07:57:45;;;;;;;31.38;17.85;;;3.60;82.40;;;;;;5000695;28;20772;-76
2022/01/16 08:00:31;;;;;;;36.35;17.15;;;3.60;82.50;;;;;;4998705;28;20193;-76
2022/01/16 08:02:59;;;;;;;35.58;18.00;;;3.60;82.60;;;;;;5002091;28;20574;-76
2022/01/16 08:05:28;;;;;;;31.70;17.13;;;3.60;82.70;;;;;;5000590;28;20722;-76
2022/01/16 08:07:56;;;;;;;39.40;20.67;;;3.60;82.60;;;;;;5001863;28;20277;-76
2022/01/16 08:10:24;;;;;;;32.88;18.73;;;3.60;82.50;;;;;;5000596;28;20211;-76
2022/01/16 08:12:53;;;;;;;32.53;18.50;;;3.60;82.50;;;;;;4995273;28;20544;-76
2022/01/16 08:15:21;;;;;;;37.35;20.05;;;3.60;82.50;;;;;;4997969;28;20216;-76
2022/01/16 08:17:50;;;;;;;40.67;20.52;;;3.60;82.40;;;;;;5001221;28;20225;-76
2022/01/16 08:20:18;;;;;;;35.53;19.52;;;3.50;82.40;;;;;;4997503;28;20198;-76
2022/01/16 08:22:46;;;;;;;38.50;20.52;;;3.50;82.40;;;;;;4998695;28;20206;-76
2022/01/16 08:25:14;;;;;;;39.65;20.38;;;3.50;82.50;;;;;;5001515;28;20277;-76
2022/01/16 08:27:42;;;;;;;38.80;20.35;;;3.50;82.60;;;;;;4998714;28;20267;-76
2022/01/16 08:30:11;;;;;;;38.58;20.80;;;3.50;82.60;;;;;;4998263;28;20252;-76
2022/01/16 08:32:39;;;;;;;38.00;21.27;;;3.60;82.60;;;;;;5003722;28;20217;-76
2022/01/16 08:35:09;;;;;;;42.80;22.23;;;3.60;82.50;;;;;;4997153;28;20214;-76
2022/01/16 08:37:37;;;;;;;38.88;20.77;;;3.50;82.40;;;;;;4994548;28;20276;-76
2022/01/16 08:40:06;;;;;;;40.47;22.23;;;3.50;82.40;;;;;;4999872;28;20202;-76
2022/01/16 08:42:35;;;;;;;44.88;22.77;;;3.50;82.40;;;;;;4993886;28;20248;-77
2022/01/16 08:45:04;;;;;;;49.40;23.88;;;3.40;82.40;;;;;;4995233;28;20228;-76
2022/01/16 08:47:32;;;;;;;37.70;21.58;;;3.40;82.40;;;;;;4995175;28;20643;-76
2022/01/16 08:50:02;;;;;;;43.60;22.35;;;3.40;82.40;;;;;;4997231;28;20281;-76
2022/01/16 08:52:31;;;;;;;38.67;22.15;;;3.40;82.40;;;;;;5002664;28;20214;-76
2022/01/16 08:55:01;;;;;;;47.90;24.58;;;3.40;82.50;;;;;;4997207;28;20257;-76
2022/01/16 08:57:28;;;;;;;42.35;22.90;;;3.40;82.60;;;;;;5000006;28;20233;-76
2022/01/16 08:59:56;;;;;;;46.63;23.63;;;3.40;82.60;;;;;;4998584;28;20201;-76
2022/01/16 09:02:24;;;;;;;42.08;23.50;;;3.50;82.50;;;;;;4994601;28;20260;-76
2022/01/16 09:04:53;;;;;;;46.78;24.10;;;3.40;82.20;;;;;;4995337;28;20214;-76
2022/01/16 09:07:21;;;;;;;42.83;22.08;;;3.40;82.20;;;;;;4998038;28;20901;-76
2022/01/16 09:09:50;;;;;;;46.47;23.23;;;3.40;82.30;;;;;;4997456;28;20202;-76
2022/01/16 09:12:19;;;;;;;47.58;25.05;;;3.40;82.40;;;;;;4992898;28;20278;-76
2022/01/16 09:14:47;;;;;;;46.58;24.45;;;3.30;82.30;;;;;;4999114;28;20214;-76
2022/01/16 09:17:14;;;;;;;46.40;23.88;;;3.30;82.40;;;;;;5000508;28;20225;-76
2022/01/16 09:19:43;;;;;;;39.10;21.92;;;3.30;82.40;;;;;;4993052;28;20252;-76
2022/01/16 09:22:10;;;;;;;49.60;22.80;;;3.40;82.40;;;;;;4998970;28;20202;-76
2022/01/16 09:24:38;;;;;;;42.20;21.73;;;3.40;82.30;;;;;;4999088;28;20256;-76
2022/01/16 09:27:08;;;;;;;45.22;20.65;;;3.30;82.20;;;;;;4992360;28;20676;-76
2022/01/16 09:29:35;;;;;;;41.10;21.48;;;3.30;82.20;;;;;;4994310;28;20201;-76
2022/01/16 09:32:05;;;;;;;37.53;19.45;;;3.20;82.20;;;;;;4993302;28;20226;-76
2022/01/16 09:34:33;;;;;;;40.05;21.15;;;3.20;82.40;;;;;;5001517;28;20205;-76
2022/01/16 09:37:08;;;;;;;41.88;20.83;;;3.20;82.40;;;;;;4997200;28;20292;-76
2022/01/16 09:39:36;;;;;;;42.03;21.17;;;3.20;82.20;;;;;;4998982;28;20197;-76
2022/01/16 09:42:06;;;;;;;40.63;20.42;;;3.20;82.40;;;;;;4994260;28;20206;-76
2022/01/16 09:44:38;;;;;;;40.28;19.90;;;3.20;82.50;;;;;;4994800;28;20224;-76
2022/01/16 09:47:09;;;;;;;36.10;19.48;;;3.20;82.50;;;;;;4996665;28;20209;-76
2022/01/16 09:49:37;;;;;;;39.33;19.77;;;3.20;82.50;;;;;;4997737;28;20214;-76
2022/01/16 09:52:06;;;;;;;36.85;20.27;;;3.30;82.40;;;;;;4995639;28;20210;-76
2022/01/16 09:54:34;;;;;;;38.70;19.52;;;3.30;82.40;;;;;;5011587;28;20213;-77
2022/01/16 09:57:02;;;;;;;44.40;21.25;;;3.30;82.30;;;;;;4998869;28;20622;-78
2022/01/16 09:59:30;;;;;;;36.42;19.40;;;3.30;82.30;;;;;;4997054;28;20202;-77
2022/01/16 10:01:59;;;;;;;38.63;19.48;;;3.30;82.20;;;;;;5004276;28;20233;-77
2022/01/16 10:04:32;;;;;;;35.47;19.35;;;3.30;82.30;;;;;;4996411;28;20237;-77
2022/01/16 10:07:01;;;;;;;37.83;18.27;;;3.40;82.30;;;;;;5003428;28;20634;-77
2022/01/16 10:09:30;;;;;;;40.33;19.35;;;3.40;82.20;;;;;;4999743;28;20213;-77
2022/01/16 10:12:01;;;;;;;32.72;19.17;;;3.40;82.20;;;;;;5015820;28;20198;-78
2022/01/16 10:14:45;;;;;;;38.65;19.65;;;3.30;82.20;;;;;;5002368;28;20213;-77
2022/01/16 10:17:17;;;;;;;40.58;19.60;;;3.30;82.40;;;;;;5000444;28;20284;-78
2022/01/16 10:19:46;;;;;;;33.88;17.92;;;3.30;82.20;;;;;;5000698;28;20206;-78
2022/01/16 10:22:15;;;;;;;37.05;20.58;;;3.30;82.20;;;;;;5001125;28;20204;-78
2022/01/16 10:24:43;;;;;;;36.03;17.98;;;3.20;82.30;;;;;;4999939;28;20206;-78
2022/01/16 10:27:18;;;;;;;31.90;16.50;;;3.20;82.40;;;;;;4996741;28;20441;-78
2022/01/16 10:29:48;;;;;;;36.13;18.70;;;3.20;82.50;;;;;;4995538;28;20201;-78
2022/01/16 10:32:20;;;;;;;35.40;17.88;;;3.20;82.50;;;;;;4996304;28;20257;-78
2022/01/16 10:34:50;;;;;;;32.80;16.75;;;3.20;82.60;;;;;;5008337;28;20194;-78
2022/01/16 10:37:24;;;;;;;32.55;16.38;;;3.20;82.80;;;;;;5013279;28;20214;-78
2022/01/16 10:39:58;;;;;;;34.10;18.60;;;3.20;82.70;;;;;;5000139;28;20784;-78
2022/01/16 10:42:28;;;;;;;29.95;17.23;;;3.20;82.70;;;;;;5007599;28;20244;-78
2022/01/16 10:45:01;;;;;;;31.30;16.00;;;3.20;82.80;;;;;;5007716;28;20205;-78
2022/01/16 10:47:34;;;;;;;34.00;16.45;;;3.20;82.70;;;;;;5006009;28;20226;-78
2022/01/16 10:50:09;;;;;;;34.78;16.80;;;3.30;82.70;;;;;;5002644;28;20217;-78
2022/01/16 10:52:56;;;;;;;34.13;18.20;;;3.20;82.80;;;;;;5001518;28;20272;-78
2022/01/16 10:55:32;;;;;;;32.85;17.45;;;3.20;82.80;;;;;;5002413;28;20671;-78
2022/01/16 10:58:02;;;;;;;31.33;17.13;;;3.20;82.90;;;;;;5002434;28;20236;-78
2022/01/16 11:00:30;;;;;;;29.45;15.93;;;3.30;82.90;;;;;;5001546;28;20643;-78
2022/01/16 11:03:03;;;;;;;33.65;16.65;;;3.30;82.70;;;;;;4997501;28;20590;-78
2022/01/16 11:05:35;;;;;;;29.88;15.95;;;3.20;82.90;;;;;;4997927;28;20309;-78
2022/01/16 11:08:05;;;;;;;31.42;16.00;;;3.20;82.80;;;;;;5002006;28;20218;-78
2022/01/16 11:10:34;;;;;;;29.98;16.40;;;3.20;83.00;;;;;;5016444;28;20623;-78
2022/01/16 11:13:06;;;;;;;34.63;17.60;;;3.20;82.90;;;;;;5010097;28;20209;-78
2022/01/16 11:15:37;;;;;;;31.08;18.25;;;3.20;83.10;;;;;;5002971;28;20201;-78
2022/01/16 11:18:07;;;;;;;26.48;15.15;;;3.30;83.00;;;;;;4998524;28;20236;-78
2022/01/16 11:20:38;;;;;;;32.17;17.02;;;3.30;83.10;;;;;;5003322;28;20203;-78
2022/01/16 11:23:15;;;;;;;32.70;17.73;;;3.30;83.20;;;;;;5000722;28;20221;-78
2022/01/16 11:25:45;;;;;;;34.60;17.20;;;3.30;83.10;;;;;;5003993;28;20198;-78
2022/01/16 11:28:15;;;;;;;33.22;16.65;;;3.40;83.10;;;;;;5006680;28;20224;-78
2022/01/16 11:30:46;;;;;;;31.52;17.00;;;3.40;83.10;;;;;;4997415;28;20218;-78
2022/01/16 11:33:23;;;;;;;26.88;16.20;;;3.40;83.30;;;;;;5000602;28;20201;-78
2022/01/16 11:35:54;;;;;;;31.55;16.33;;;3.40;83.20;;;;;;5019790;28;20253;-78
2022/01/16 11:38:24;;;;;;;33.08;16.52;;;3.40;83.20;;;;;;5001474;28;20225;-78
2022/01/16 11:40:52;;;;;;;28.65;16.08;;;3.50;83.10;;;;;;5016957;28;20811;-77
2022/01/16 11:43:25;;;;;;;36.55;16.90;;;3.50;83.10;;;;;;5003092;28;20206;-78
2022/01/16 11:46:12;;;;;;;32.50;17.13;;;3.50;83.20;;;;;;5003755;28;20540;-77
2022/01/16 11:48:51;;;;;;;32.22;18.55;;;3.50;83.20;;;;;;5012984;28;20234;-78
2022/01/16 11:51:51;;;;;;;31.75;16.75;;;3.50;83.00;;;;;;5000886;28;20676;-78
2022/01/16 11:54:24;;;;;;;30.17;17.15;;;3.40;83.10;;;;;;4997024;28;20676;-78
2022/01/16 11:56:58;;;;;;;31.30;18.02;;;3.40;83.00;;;;;;5002256;28;20256;-78
2022/01/16 11:59:28;;;;;;;36.85;19.23;;;3.40;83.20;;;;;;4997196;28;20209;-78
2022/01/16 12:01:59;;;;;;;32.85;17.05;;;3.40;83.20;;;;;;4996986;28;20206;-78
2022/01/16 12:04:57;;;;;;;34.97;19.10;;;3.40;83.30;;;;;;4994333;28;20202;-78
2022/01/16 12:07:48;;;;;;;30.50;16.45;;;3.40;83.40;;;;;;4996955;28;20237;-78
2022/01/16 12:10:43;;;;;;;28.58;16.50;;;3.40;83.30;;;;;;5015005;28;20268;-78
2022/01/16 12:13:44;;;;;;;30.75;15.70;;;3.40;83.40;;;;;;4997669;28;20265;-78
2022/01/16 12:16:34;;;;;;;33.75;17.25;;;3.40;83.40;;;;;;5005335;28;20220;-77
2022/01/16 12:19:36;;;;;;;31.08;16.35;;;3.50;83.50;;;;;;4996574;28;20222;-78
2022/01/16 12:22:08;;;;;;;31.58;17.13;;;3.50;83.40;;;;;;4997599;28;20204;-78
2022/01/16 12:24:38;;;;;;;33.53;17.67;;;3.60;83.30;;;;;;4999833;28;20226;-78
2022/01/16 12:27:27;;;;;;;27.75;17.10;;;3.60;83.30;;;;;;5000735;28;20245;-78
2022/01/16 12:30:35;;;;;;;26.98;16.55;;;3.60;83.30;;;;;;4998952;28;20672;-78
2022/01/16 12:33:09;;;;;;;32.70;18.35;;;3.60;83.20;;;;;;4999188;28;20205;-78
2022/01/16 12:36:12;;;;;;;31.17;17.70;;;3.60;83.10;;;;;;5001096;28;20209;-78
2022/01/16 12:38:45;;;;;;;29.45;17.65;;;3.60;83.10;;;;;;4995128;28;20245;-78
2022/01/16 12:41:17;;;;;;;30.90;17.35;;;3.60;83.10;;;;;;5002387;28;20202;-78
2022/01/16 12:43:52;;;;;;;35.10;18.95;;;3.60;83.10;;;;;;4999154;28;20198;-78
2022/01/16 12:46:23;;;;;;;31.88;17.85;;;3.60;83.10;;;;;;5000838;28;20201;-78
2022/01/16 12:48:53;;;;;;;35.47;19.10;;;3.60;83.10;;;;;;5008369;28;20225;-78
2022/01/16 12:51:25;;;;;;;35.75;18.98;;;3.60;83.00;;;;;;4994515;28;20822;-77
2022/01/16 12:53:56;;;;;;;34.08;19.50;;;3.60;83.00;;;;;;4994458;28;20501;-78
2022/01/16 12:56:28;;;;;;;33.53;18.90;;;3.60;83.10;;;;;;5005034;28;20213;-78
2022/01/16 12:58:59;;;;;;;35.63;19.73;;;3.60;83.10;;;;;;4997431;28;20658;-77
2022/01/16 13:01:32;;;;;;;32.33;19.13;;;3.60;83.10;;;;;;4994189;28;20198;-78
2022/01/16 13:04:01;;;;;;;30.30;18.00;;;3.60;83.10;;;;;;4996603;28;20212;-77
2022/01/16 13:06:31;;;;;;;35.33;19.77;;;3.60;83.10;;;;;;4995937;28;20202;-78
2022/01/16 13:09:06;;;;;;;34.03;19.55;;;3.60;83.20;;;;;;5002650;28;20225;-78
2022/01/16 13:11:36;;;;;;;36.65;19.90;;;3.70;83.10;;;;;;4998699;28;20201;-77
2022/01/16 13:14:05;;;;;;;35.42;19.27;;;3.70;83.10;;;;;;5002977;28;20793;-78
2022/01/16 13:16:35;;;;;;;39.65;21.88;;;3.70;83.10;;;;;;5001753;28;21026;-78
2022/01/16 13:19:08;;;;;;;34.92;20.92;;;3.60;83.10;;;;;;4993247;28;20214;-78
2022/01/16 13:22:01;;;;;;;35.78;20.85;;;3.70;83.20;;;;;;5002836;28;20253;-78
2022/01/16 13:24:39;;;;;;;37.85;21.60;;;3.70;83.20;;;;;;4998589;28;22147;-78
2022/01/16 13:27:10;;;;;;;43.63;21.52;;;3.70;83.20;;;;;;4996343;28;20698;-77
2022/01/16 13:29:40;;;;;;;42.42;22.55;;;3.70;83.10;;;;;;5000367;28;20217;-78